Time;durP1;ratioP1;P1;durP2;ratioP2;P2;SDS_P1;SDS_P2;PMS_P1;PMS_P2;Temp;Humidity;BMP_temperature;BMP_pressure;BME280_temperature;BME280_humidity;BME280_pressure;Samples;Min_cycle;Max_cycle;Signal;HPM_P1;HPM_P2
2022/09/09 00:01:34;;;;;;;7.03;4.13;;;17.40;1.00;;;;;;5041063;28;20200;-66
2022/09/09 00:04:29;;;;;;;7.75;3.05;;;17.50;1.00;;;;;;5040889;28;20202;-66
2022/09/09 00:07:17;;;;;;;2.70;1.30;;;17.30;1.00;;;;;;5039512;28;20203;-66
2022/09/09 00:10:00;;;;;;;4.20;1.30;;;17.00;1.00;;;;;;5042951;28;20192;-66
2022/09/09 00:12:41;;;;;;;3.97;1.58;;;16.70;99.10;;;;;;5040609;28;20195;-65
2022/09/09 00:15:13;;;;;;;4.15;1.58;;;16.50;99.90;;;;;;5039738;28;21862;-66
2022/09/09 00:17:47;;;;;;;2.90;1.60;;;16.60;99.90;;;;;;5040534;28;20191;-66
2022/09/09 00:20:39;;;;;;;11.77;8.45;;;16.50;99.90;;;;;;5023166;28;20963;-66
2022/09/09 00:23:19;;;;;;;2.22;1.50;;;16.50;99.90;;;;;;5023636;28;20526;-66
2022/09/09 00:25:55;;;;;;;3.15;1.30;;;16.40;99.90;;;;;;5015747;28;20938;-66
2022/09/09 00:28:29;;;;;;;4.50;1.58;;;16.30;99.90;;;;;;5041537;28;20273;-66
2022/09/09 00:30:58;;;;;;;7.47;3.10;;;16.10;1.00;;;;;;5038932;28;20191;-65
2022/09/09 00:33:27;;;;;;;1.63;1.23;;;16.10;1.00;;;;;;5040438;28;20199;-65
2022/09/09 00:35:58;;;;;;;5.50;2.23;;;16.00;1.00;;;;;;5040539;28;20206;-65
2022/09/09 00:38:28;;;;;;;3.23;1.50;;;16.10;1.00;;;;;;5042436;28;20318;-65
2022/09/09 00:41:01;;;;;;;5.77;2.40;;;16.10;1.00;;;;;;5038868;28;20223;-65
2022/09/09 00:43:31;;;;;;;3.20;1.40;;;16.10;1.00;;;;;;5026064;28;20213;-64
2022/09/09 00:46:18;;;;;;;4.17;1.63;;;16.10;1.00;;;;;;5041599;28;20194;-65
2022/09/09 00:49:02;;;;;;;2.07;1.30;;;16.00;1.00;;;;;;5042179;28;20187;-64
2022/09/09 00:51:35;;;;;;;8.33;1.67;;;15.90;1.00;;;;;;5041801;28;20671;-64
2022/09/09 00:54:22;;;;;;;3.53;1.30;;;15.80;1.00;;;;;;5038826;28;20314;-64
2022/09/09 00:57:07;;;;;;;2.95;1.50;;;15.80;1.00;;;;;;5021142;28;20200;-64
2022/09/09 00:59:50;;;;;;;2.07;1.40;;;15.70;99.90;;;;;;5020945;28;20217;-64
2022/09/09 01:02:56;;;;;;;4.50;1.40;;;15.60;57.60;;;;;;5040226;28;20204;-64
2022/09/09 01:05:33;;;;;;;4.13;1.60;;;15.50;99.90;;;;;;4987831;28;20220;-66
2022/09/09 01:08:11;;;;;;;2.77;1.37;;;15.40;99.90;;;;;;5042662;28;20188;-66
2022/09/09 01:10:53;;;;;;;3.00;1.40;;;15.20;99.90;;;;;;5038900;28;20207;-66
2022/09/09 01:13:30;;;;;;;2.67;1.67;;;15.10;1.00;;;;;;5033432;28;20235;-67
2022/09/09 01:16:04;;;;;;;2.00;1.60;;;15.00;1.00;;;;;;5044260;28;20215;-66
2022/09/09 01:18:36;;;;;;;3.93;1.90;;;15.00;1.00;;;;;;5023956;28;20855;-67
2022/09/09 01:21:13;;;;;;;5.03;2.17;;;14.90;1.00;;;;;;5043971;28;20675;-67
2022/09/09 01:24:12;;;;;;;3.03;1.80;;;14.90;1.00;;;;;;5040603;28;20286;-66
2022/09/09 01:27:13;;;;;;;2.53;1.60;;;14.90;79.30;;;;;;5027249;28;20207;-67
2022/09/09 01:29:40;;;;;;;3.73;1.87;;;14.90;99.90;;;;;;5046740;28;20527;-67
2022/09/09 01:32:44;;;;;;;2.90;1.73;;;15.00;65.90;;;;;;5024258;28;20199;-66
2022/09/09 01:35:28;;;;;;;3.47;1.87;;;14.80;37.60;;;;;;5044148;28;20677;-66
2022/09/09 01:37:56;;;;;;;3.43;2.00;;;14.90;99.90;;;;;;5003253;28;20204;-66
2022/09/09 01:40:25;;;;;;;5.47;1.80;;;14.90;99.90;;;;;;5024960;28;21130;-66
2022/09/09 01:42:54;;;;;;;5.03;2.20;;;14.90;99.90;;;;;;5026152;28;20196;-66
2022/09/09 01:45:23;;;;;;;4.83;1.90;;;14.80;99.90;;;;;;5020624;28;20204;-65
2022/09/09 01:47:52;;;;;;;5.33;1.80;;;14.80;1.00;;;;;;5044189;28;20190;-66
2022/09/09 01:50:27;;;;;;;4.73;2.23;;;14.70;99.90;;;;;;5027688;28;20705;-66
2022/09/09 01:52:58;;;;;;;2.57;2.17;;;14.70;1.00;;;;;;5042859;28;20586;-66
2022/09/09 01:55:30;;;;;;;4.70;2.03;;;14.70;1.00;;;;;;5023380;28;20602;-66
2022/09/09 01:58:20;;;;;;;4.27;2.30;;;14.70;1.00;;;;;;5041984;28;20237;-65
2022/09/09 02:01:05;;;;;;;4.33;2.27;;;14.80;1.00;;;;;;5024507;28;20239;-65
2022/09/09 02:03:35;;;;;;;5.03;2.07;;;14.70;99.90;;;;;;5042522;28;20195;-64
2022/09/09 02:06:19;;;;;;;4.50;2.30;;;14.60;1.00;;;;;;5026407;28;20207;-65
2022/09/09 02:08:55;;;;;;;4.70;2.30;;;14.60;1.00;;;;;;5029014;28;20195;-67
2022/09/09 02:11:28;;;;;;;6.77;2.57;;;14.50;1.00;;;;;;5044029;28;20875;-67
2022/09/09 02:14:16;;;;;;;6.33;2.77;;;14.50;1.00;;;;;;5007253;28;20323;-66
2022/09/09 02:16:56;;;;;;;4.97;2.80;;;14.40;1.00;;;;;;5023531;28;20362;-67
2022/09/09 02:19:45;;;;;;;4.30;2.50;;;14.40;87.50;;;;;;5023356;28;20628;-66
2022/09/09 02:22:24;;;;;;;5.30;2.67;;;14.40;99.90;;;;;;5023918;28;20807;-67
2022/09/09 02:24:56;;;;;;;3.40;3.10;;;14.30;99.90;;;;;;5006368;28;20203;-64
2022/09/09 02:27:26;;;;;;;5.20;2.93;;;14.40;99.90;;;;;;5025282;28;20531;-64
2022/09/09 02:29:56;;;;;;;6.33;3.37;;;14.40;99.90;;;;;;5006411;28;20209;-64
2022/09/09 02:32:39;;;;;;;6.87;3.30;;;14.50;14.40;;;;;;5022743;28;20671;-64
2022/09/09 02:35:14;;;;;;;6.57;3.10;;;14.50;1.00;;;;;;5026042;28;20682;-62
2022/09/09 02:37:47;;;;;;;6.50;3.10;;;14.50;1.00;;;;;;5025997;28;20199;-63
2022/09/09 02:40:16;;;;;;;6.50;3.27;;;14.50;1.00;;;;;;5021025;28;23031;-64
2022/09/09 02:42:49;;;;;;;5.60;3.40;;;14.60;1.00;;;;;;5021260;28;20184;-62
2022/09/09 02:45:20;;;;;;;6.10;2.90;;;14.70;1.00;;;;;;5021523;28;20193;-62
2022/09/09 02:48:04;;;;;;;3.07;2.77;;;14.80;1.00;;;;;;5018255;28;20192;-64
2022/09/09 02:50:45;;;;;;;6.73;2.80;;;14.80;1.00;;;;;;4997172;28;20566;-62
2022/09/09 02:53:24;;;;;;;4.60;3.00;;;14.90;1.00;;;;;;5006330;28;20888;-64
2022/09/09 02:56:04;;;;;;;3.20;2.90;;;14.90;1.00;;;;;;5018328;28;20273;-62
2022/09/09 02:58:34;;;;;;;4.60;2.90;;;14.90;99.90;;;;;;5020959;28;20223;-63
2022/09/09 03:01:05;;;;;;;3.90;2.50;;;15.00;99.90;;;;;;5006588;28;20315;-61
2022/09/09 03:03:32;;;;;;;6.40;3.23;;;14.90;99.90;;;;;;5022173;28;20686;-64
2022/09/09 03:06:05;;;;;;;7.40;2.90;;;15.00;99.90;;;;;;5000687;28;20533;-64
2022/09/09 03:08:32;;;;;;;6.13;2.87;;;15.00;99.90;;;;;;5003548;28;20231;-64
2022/09/09 03:11:01;;;;;;;18.03;3.07;;;15.00;99.90;;;;;;5021812;28;20196;-62
2022/09/09 03:13:31;;;;;;;3.53;2.67;;;15.00;99.90;;;;;;5015837;28;20227;-64
2022/09/09 03:15:58;;;;;;;3.43;2.63;;;15.00;99.90;;;;;;5019107;28;20257;-63
2022/09/09 03:18:27;;;;;;;7.33;2.70;;;15.00;99.90;;;;;;5005618;28;20200;-63
2022/09/09 03:20:55;;;;;;;3.63;2.73;;;15.00;99.90;;;;;;5022344;28;20648;-62
2022/09/09 03:23:22;;;;;;;3.97;2.67;;;15.00;99.90;;;;;;5018989;28;20687;-61
2022/09/09 03:25:51;;;;;;;5.13;3.23;;;15.10;99.90;;;;;;5003652;28;20200;-64
2022/09/09 03:28:30;;;;;;;6.50;2.87;;;15.10;12.80;;;;;;5018875;28;20201;-63
2022/09/09 03:31:00;;;;;;;4.70;2.43;;;15.10;59.30;;;;;;5004639;28;20237;-62
2022/09/09 03:33:31;;;;;;;7.83;2.80;;;15.10;1.00;;;;;;5005061;28;20224;-65
2022/09/09 03:35:58;;;;;;;5.33;2.80;;;15.20;1.00;;;;;;5002566;28;20703;-66
2022/09/09 03:38:25;;;;;;;7.33;3.00;;;15.10;8.70;;;;;;5007129;28;20292;-62
2022/09/09 03:40:55;;;;;;;5.93;2.43;;;15.10;1.00;;;;;;5019037;28;20564;-62
2022/09/09 03:43:24;;;;;;;4.43;2.67;;;15.10;1.00;;;;;;5013345;28;20622;-63
2022/09/09 03:45:53;;;;;;;6.27;2.40;;;15.10;1.00;;;;;;5019172;28;20201;-63
2022/09/09 03:48:20;;;;;;;9.67;2.50;;;15.10;1.00;;;;;;5022181;28;20207;-63
2022/09/09 03:50:48;;;;;;;6.63;2.30;;;15.10;35.30;;;;;;5007709;28;20664;-64
2022/09/09 03:53:16;;;;;;;5.27;2.50;;;15.20;33.80;;;;;;5038226;28;20192;-66
2022/09/09 03:55:45;;;;;;;4.17;2.40;;;15.10;99.90;;;;;;5022225;28;20200;-63
2022/09/09 03:58:14;;;;;;;9.70;2.90;;;15.10;41.70;;;;;;5013954;28;20204;-62
2022/09/09 04:00:43;;;;;;;5.53;2.23;;;15.10;1.00;;;;;;5005801;28;20209;-62
2022/09/09 04:03:10;;;;;;;5.23;2.27;;;15.00;1.00;;;;;;5021161;28;20250;-65
2022/09/09 04:05:40;;;;;;;3.60;1.90;;;15.10;1.00;;;;;;5010980;28;20295;-65
2022/09/09 04:08:08;;;;;;;7.20;2.23;;;15.10;1.00;;;;;;5005473;28;20197;-62
2022/09/09 04:10:38;;;;;;;6.90;1.90;;;15.10;1.00;;;;;;5034803;28;20720;-66
2022/09/09 04:13:05;;;;;;;4.47;2.00;;;15.20;99.90;;;;;;5026204;28;20231;-66
2022/09/09 04:15:32;;;;;;;3.40;2.10;;;15.20;99.90;;;;;;5022309;28;20227;-65
2022/09/09 04:18:00;;;;;;;7.57;2.70;;;15.30;1.00;;;;;;5024720;28;20262;-64
2022/09/09 04:20:27;;;;;;;4.47;1.80;;;15.20;99.90;;;;;;5024047;28;20322;-63
2022/09/09 04:22:54;;;;;;;5.67;2.10;;;15.30;99.90;;;;;;5040585;28;20192;-64
2022/09/09 04:25:21;;;;;;;5.53;2.00;;;15.30;99.90;;;;;;5038858;28;20315;-64
2022/09/09 04:27:54;;;;;;;4.33;2.13;;;15.30;1.00;;;;;;5022735;28;20204;-66
2022/09/09 04:30:22;;;;;;;5.07;1.90;;;15.40;99.90;;;;;;5022932;28;20227;-63
2022/09/09 04:32:49;;;;;;;5.87;2.23;;;15.40;99.90;;;;;;5038753;28;20721;-65
2022/09/09 04:35:16;;;;;;;7.70;2.03;;;15.40;40.50;;;;;;5024131;28;20558;-63
2022/09/09 04:37:44;;;;;;;5.20;1.80;;;15.50;97.70;;;;;;5022324;28;20227;-64
2022/09/09 04:40:11;;;;;;;5.00;1.83;;;15.50;99.90;;;;;;5023903;28;20717;-62
2022/09/09 04:42:39;;;;;;;5.90;1.80;;;15.50;99.90;;;;;;5042849;28;20667;-64
2022/09/09 04:45:07;;;;;;;5.73;1.80;;;15.40;99.90;;;;;;5038185;28;20916;-64
2022/09/09 04:47:35;;;;;;;5.73;1.90;;;15.40;60.70;;;;;;5038990;28;20203;-64
2022/09/09 04:50:03;;;;;;;5.50;2.23;;;15.50;1.00;;;;;;5041242;28;20283;-64
2022/09/09 04:52:30;;;;;;;2.70;2.00;;;15.50;1.00;;;;;;5041435;28;20223;-63
2022/09/09 04:54:57;;;;;;;5.63;2.23;;;15.60;1.00;;;;;;5029854;28;20211;-64
2022/09/09 04:57:24;;;;;;;4.50;1.90;;;15.60;1.00;;;;;;5042141;28;21050;-63
2022/09/09 04:59:51;;;;;;;5.50;2.13;;;15.60;1.00;;;;;;5025459;28;20847;-63
2022/09/09 05:02:18;;;;;;;6.23;2.50;;;15.70;1.00;;;;;;5044712;28;20219;-64
2022/09/09 05:04:45;;;;;;;6.53;1.73;;;15.70;1.00;;;;;;5042493;28;20192;-63
2022/09/09 05:07:14;;;;;;;7.03;2.00;;;15.70;1.00;;;;;;5043264;28;20697;-63
2022/09/09 05:09:42;;;;;;;5.33;2.13;;;15.70;1.00;;;;;;5041622;28;20206;-65
2022/09/09 05:12:09;;;;;;;4.33;2.00;;;15.80;1.00;;;;;;5039534;28;20311;-63
2022/09/09 05:14:40;;;;;;;9.03;2.13;;;15.80;1.00;;;;;;5025972;28;20274;-64
2022/09/09 05:17:07;;;;;;;5.70;1.80;;;15.80;1.00;;;;;;5044395;28;20227;-63
2022/09/09 05:19:37;;;;;;;4.10;1.90;;;15.90;1.00;;;;;;5043573;28;20203;-64
2022/09/09 05:22:04;;;;;;;4.77;1.90;;;15.90;1.00;;;;;;5044540;28;20231;-64
2022/09/09 05:24:39;;;;;;;3.83;1.70;;;16.00;99.90;;;;;;5044596;28;20194;-64
2022/09/09 05:27:07;;;;;;;7.33;2.10;;;16.00;1.00;;;;;;5043064;28;20206;-64
2022/09/09 05:29:34;;;;;;;6.00;2.07;;;16.00;1.00;;;;;;5042327;28;20673;-64
2022/09/09 05:32:03;;;;;;;4.53;1.90;;;16.00;1.00;;;;;;5044021;28;20203;-63
2022/09/09 05:34:30;;;;;;;4.93;1.70;;;16.00;1.00;;;;;;5025964;28;20205;-64
2022/09/09 05:36:58;;;;;;;4.32;1.90;;;16.00;1.00;;;;;;5024064;28;20216;-62
2022/09/09 05:39:25;;;;;;;3.87;2.00;;;16.00;1.00;;;;;;5044801;28;20295;-65
2022/09/09 05:41:53;;;;;;;8.13;2.67;;;16.00;1.00;;;;;;5020933;28;20891;-63
2022/09/09 05:44:23;;;;;;;4.87;1.73;;;16.10;1.00;;;;;;5024552;28;20219;-64
2022/09/09 05:46:50;;;;;;;9.60;2.10;;;16.00;1.00;;;;;;5017945;28;20230;-63
2022/09/09 05:49:17;;;;;;;2.90;1.80;;;16.00;1.00;;;;;;5026909;28;20191;-64
2022/09/09 05:51:44;;;;;;;5.17;1.80;;;16.10;1.00;;;;;;5042348;28;20207;-64
2022/09/09 05:54:15;;;;;;;6.83;1.83;;;16.10;1.00;;;;;;5018155;28;20200;-64
2022/09/09 05:56:46;;;;;;;4.50;1.80;;;16.20;99.90;;;;;;5021434;28;20200;-64
2022/09/09 05:59:18;;;;;;;6.10;2.00;;;16.20;99.90;;;;;;5026010;28;20254;-63
2022/09/09 06:01:45;;;;;;;5.90;1.87;;;16.30;99.90;;;;;;5026628;28;20211;-64
2022/09/09 06:04:24;;;;;;;4.30;2.10;;;16.40;99.90;;;;;;5024754;28;20188;-63
2022/09/09 06:06:52;;;;;;;5.00;2.10;;;16.40;99.90;;;;;;5040209;28;20631;-64
2022/09/09 06:09:21;;;;;;;5.18;2.00;;;16.40;99.90;;;;;;5027081;28;22406;-63
2022/09/09 06:11:48;;;;;;;10.63;2.40;;;16.40;99.90;;;;;;5038474;28;20204;-64
2022/09/09 06:14:17;;;;;;;8.00;2.50;;;16.40;99.90;;;;;;5041516;28;20669;-65
2022/09/09 06:16:48;;;;;;;4.60;1.95;;;16.40;99.90;;;;;;5023195;28;20541;-63
2022/09/09 06:19:21;;;;;;;4.20;2.03;;;16.40;99.90;;;;;;5037643;28;20195;-62
2022/09/09 06:21:48;;;;;;;8.97;2.23;;;16.40;99.90;;;;;;5027287;28;20274;-64
2022/09/09 06:24:17;;;;;;;6.87;2.10;;;16.40;99.90;;;;;;5025371;28;20206;-63
2022/09/09 06:26:45;;;;;;;4.75;2.17;;;16.40;99.90;;;;;;5024118;28;20192;-63
2022/09/09 06:29:16;;;;;;;6.43;2.08;;;16.40;99.90;;;;;;5038251;28;20194;-64
2022/09/09 06:31:44;;;;;;;6.70;2.00;;;16.40;99.90;;;;;;5025739;28;20390;-64
2022/09/09 06:34:23;;;;;;;6.87;1.93;;;16.40;1.00;;;;;;5041515;28;20203;-63
2022/09/09 06:36:57;;;;;;;5.83;1.87;;;16.40;99.90;;;;;;5028469;28;20290;-64
2022/09/09 06:39:26;;;;;;;4.77;2.07;;;16.50;99.90;;;;;;5043427;28;20203;-64
2022/09/09 06:41:54;;;;;;;6.97;2.10;;;16.50;99.90;;;;;;5036239;28;20879;-64
2022/09/09 06:44:40;;;;;;;7.00;1.93;;;16.50;99.90;;;;;;5022905;28;20207;-63
2022/09/09 06:47:11;;;;;;;5.70;1.67;;;16.60;99.90;;;;;;5026841;28;20674;-63
2022/09/09 06:49:39;;;;;;;4.90;1.67;;;16.80;21.90;;;;;;5027844;28;20249;-63
2022/09/09 06:52:09;;;;;;;6.65;1.98;;;16.80;1.00;;;;;;5039525;28;20196;-63
2022/09/09 06:54:37;;;;;;;5.72;1.90;;;17.00;1.00;;;;;;5037173;28;20253;-64
2022/09/09 06:57:07;;;;;;;6.55;1.83;;;17.30;1.00;;;;;;5037010;28;20258;-64
2022/09/09 06:59:54;;;;;;;4.60;1.63;;;17.50;1.00;;;;;;5011314;28;20206;-63
2022/09/09 07:02:21;;;;;;;5.32;1.70;;;17.60;99.90;;;;;;5023192;28;20211;-63
2022/09/09 07:04:50;;;;;;;6.45;1.80;;;17.90;99.90;;;;;;5041255;28;20539;-63
2022/09/09 07:07:18;;;;;;;5.28;1.73;;;17.90;99.90;;;;;;5043750;28;20249;-63
2022/09/09 07:09:45;;;;;;;6.82;2.03;;;17.90;99.90;;;;;;5024010;28;20211;-63
2022/09/09 07:12:13;;;;;;;4.85;1.80;;;18.10;99.90;;;;;;5042111;28;20197;-63
2022/09/09 07:14:47;;;;;;;8.65;2.17;;;18.10;99.90;;;;;;5026962;28;20849;-64
2022/09/09 07:17:14;;;;;;;7.45;2.10;;;18.10;99.90;;;;;;5043280;28;20196;-65
2022/09/09 07:19:42;;;;;;;4.13;1.70;;;18.10;99.90;;;;;;5024307;28;20237;-63
2022/09/09 07:22:10;;;;;;;6.28;1.67;;;17.90;99.90;;;;;;5041381;28;20704;-64
2022/09/09 07:24:38;;;;;;;5.82;1.60;;;17.80;99.90;;;;;;5025342;28;20199;-63
2022/09/09 07:27:06;;;;;;;6.53;1.88;;;17.80;99.90;;;;;;5035403;28;20204;-63
2022/09/09 07:29:34;;;;;;;8.40;1.88;;;17.80;99.90;;;;;;5041197;28;21730;-64
2022/09/09 07:32:03;;;;;;;6.10;1.85;;;17.90;99.90;;;;;;5027251;28;20624;-63
2022/09/09 07:34:34;;;;;;;7.90;1.80;;;18.00;99.90;;;;;;5026500;28;20679;-63
2022/09/09 07:37:01;;;;;;;5.00;1.70;;;18.30;1.10;;;;;;5042599;28;20235;-65
2022/09/09 07:39:29;;;;;;;4.70;1.55;;;18.50;1.00;;;;;;5037527;28;20223;-64
2022/09/09 07:41:57;;;;;;;3.05;1.45;;;18.60;1.00;;;;;;5041225;28;20599;-64
2022/09/09 07:44:26;;;;;;;7.10;1.70;;;18.80;1.00;;;;;;5038964;28;20187;-63
2022/09/09 07:47:02;;;;;;;4.65;1.55;;;19.40;1.00;;;;;;5045035;28;20270;-64
2022/09/09 07:49:34;;;;;;;4.45;1.60;;;19.00;1.00;;;;;;5040688;28;20192;-65
2022/09/09 07:52:03;;;;;;;3.33;1.65;;;19.20;1.00;;;;;;5041220;28;20322;-64
2022/09/09 07:54:32;;;;;;;5.25;1.73;;;18.90;1.00;;;;;;5006495;28;20207;-63
2022/09/09 07:57:04;;;;;;;6.13;1.83;;;18.50;1.00;;;;;;5039912;28;20200;-63
2022/09/09 07:59:33;;;;;;;5.57;2.00;;;18.70;1.00;;;;;;5011829;28;20245;-63
2022/09/09 08:02:00;;;;;;;6.35;1.80;;;18.70;1.00;;;;;;5024249;28;20728;-64
2022/09/09 08:04:30;;;;;;;4.68;1.48;;;18.50;1.00;;;;;;5024628;28;20196;-65
2022/09/09 08:06:59;;;;;;;6.65;1.67;;;18.60;1.00;;;;;;5040576;28;20218;-64
2022/09/09 08:09:29;;;;;;;2.85;1.50;;;18.70;1.00;;;;;;5042334;28;20241;-65
2022/09/09 08:12:09;;;;;;;3.00;1.27;;;18.70;1.00;;;;;;5024540;28;20280;-64
2022/09/09 08:14:36;;;;;;;3.45;1.20;;;19.70;1.00;;;;;;5027439;28;20268;-62
2022/09/09 08:17:03;;;;;;;2.25;1.15;;;19.90;99.90;;;;;;5041990;28;20319;-64
2022/09/09 08:19:35;;;;;;;3.45;1.30;;;20.40;99.90;;;;;;5023505;28;20192;-63
2022/09/09 08:22:07;;;;;;;3.13;1.48;;;22.20;99.90;;;;;;5007100;28;20600;-65
2022/09/09 08:24:35;;;;;;;4.43;1.60;;;24.40;47.20;;;;;;5024000;28;20193;-63
2022/09/09 08:27:03;;;;;;;4.05;1.95;;;23.30;24.90;;;;;;5039940;28;20187;-63
2022/09/09 08:29:30;;;;;;;5.03;1.45;;;24.00;24.30;;;;;;5025154;28;20196;-63
2022/09/09 08:31:58;;;;;;;5.82;1.60;;;21.70;95.50;;;;;;5039876;28;20222;-63
2022/09/09 08:34:27;;;;;;;2.90;1.13;;;23.60;31.00;;;;;;5020769;28;20203;-63
2022/09/09 08:36:57;;;;;;;4.05;1.45;;;26.40;3.30;;;;;;5043366;28;20191;-63
2022/09/09 08:39:32;;;;;;;4.30;1.42;;;25.40;1.00;;;;;;5039332;28;20558;-65
2022/09/09 08:42:00;;;;;;;5.00;1.23;;;23.70;1.00;;;;;;5041425;28;20243;-63
2022/09/09 08:44:56;;;;;;;5.88;1.58;;;22.90;55.10;;;;;;5038953;28;20195;-63
2022/09/09 08:47:49;;;;;;;4.07;1.60;;;22.30;82.70;;;;;;5024894;28;20198;-65
2022/09/09 08:50:35;;;;;;;5.05;1.95;;;22.00;99.90;;;;;;5039875;28;20193;-63
2022/09/09 08:53:16;;;;;;;6.00;1.52;;;23.10;43.10;;;;;;5022382;28;20199;-63
2022/09/09 08:56:03;;;;;;;3.58;1.60;;;25.80;1.00;;;;;;5046084;28;20207;-62
2022/09/09 08:58:48;;;;;;;5.45;1.50;;;23.70;1.00;;;;;;5044175;28;20243;-64
2022/09/09 09:01:41;;;;;;;4.13;1.23;;;23.20;13.90;;;;;;5028959;28;20281;-64
2022/09/09 09:04:33;;;;;;;5.47;1.63;;;24.40;1.00;;;;;;5044688;28;20280;-63
2022/09/09 09:07:09;;;;;;;5.47;1.80;;;23.80;1.00;;;;;;5042142;28;20241;-63
2022/09/09 09:09:59;;;;;;;6.43;1.52;;;22.00;57.00;;;;;;5039230;28;20200;-66
2022/09/09 09:12:32;;;;;;;6.75;1.80;;;22.60;50.20;;;;;;5039892;28;20237;-63
2022/09/09 09:14:59;;;;;;;5.20;1.58;;;23.50;21.40;;;;;;5027602;28;20241;-65
2022/09/09 09:17:31;;;;;;;7.47;1.67;;;22.90;27.40;;;;;;5044407;28;20658;-64
2022/09/09 09:19:59;;;;;;;4.95;1.40;;;22.00;72.00;;;;;;5035508;28;20748;-63
2022/09/09 09:22:50;;;;;;;5.68;1.60;;;22.30;62.90;;;;;;5015641;28;20554;-65
2022/09/09 09:25:26;;;;;;;4.10;1.48;;;22.40;39.20;;;;;;5038769;28;20207;-62
2022/09/09 09:28:04;;;;;;;4.90;1.48;;;23.70;2.80;;;;;;5046971;28;20630;-62
2022/09/09 09:30:41;;;;;;;3.83;1.48;;;23.40;17.90;;;;;;5025256;28;20245;-63
2022/09/09 09:33:40;;;;;;;3.75;1.45;;;24.60;1.00;;;;;;5017351;28;20222;-61
2022/09/09 09:36:08;;;;;;;4.18;1.48;;;24.10;1.00;;;;;;5035607;28;20203;-63
2022/09/09 09:38:37;;;;;;;4.05;1.30;;;24.00;1.00;;;;;;5033927;28;20203;-64
2022/09/09 09:41:34;;;;;;;7.45;2.10;;;24.00;1.00;;;;;;5024109;28;20983;-62
2022/09/09 09:44:04;;;;;;;5.10;1.30;;;24.10;1.00;;;;;;5022040;28;20195;-61
2022/09/09 09:46:32;;;;;;;6.68;1.73;;;23.20;1.00;;;;;;5027120;28;20192;-64
2022/09/09 09:49:09;;;;;;;3.70;1.40;;;24.10;1.00;;;;;;5041499;28;20210;-64
2022/09/09 09:51:38;;;;;;;4.32;1.67;;;24.00;1.00;;;;;;5024379;28;20287;-62
2022/09/09 09:54:22;;;;;;;4.25;1.40;;;23.60;1.00;;;;;;5025004;28;20865;-64
2022/09/09 09:56:54;;;;;;;5.85;1.58;;;23.90;1.00;;;;;;5043775;28;20195;-63
2022/09/09 09:59:28;;;;;;;5.43;1.77;;;25.40;1.00;;;;;;5026107;28;20204;-64
2022/09/09 10:02:12;;;;;;;6.90;1.67;;;24.90;1.00;;;;;;5042660;28;20215;-61
2022/09/09 10:04:41;;;;;;;4.88;1.50;;;25.00;1.00;;;;;;5038555;28;20648;-61
2022/09/09 10:07:19;;;;;;;5.50;1.55;;;24.20;1.00;;;;;;5021202;28;20195;-64
2022/09/09 10:09:55;;;;;;;3.60;1.77;;;24.90;1.00;;;;;;5039493;28;20184;-63
2022/09/09 10:12:43;;;;;;;6.20;1.40;;;25.30;1.00;;;;;;5037261;28;20203;-65
2022/09/09 10:15:46;;;;;;;4.57;1.30;;;27.30;1.00;;;;;;5040655;28;21259;-64
2022/09/09 10:18:47;;;;;;;4.05;1.70;;;29.40;1.00;;;;;;5012513;28;20955;-63
2022/09/09 10:21:32;;;;;;;5.30;1.70;;;30.60;1.00;;;;;;5045444;28;20214;-63
2022/09/09 10:24:39;;;;;;;2.88;1.42;;;31.20;1.00;;;;;;5026376;28;20294;-62
2022/09/09 10:27:25;;;;;;;3.88;1.40;;;28.40;1.00;;;;;;5027295;28;20746;-63
2022/09/09 10:30:09;;;;;;;6.88;1.65;;;24.50;1.00;;;;;;5042575;28;20375;-63
2022/09/09 10:32:42;;;;;;;8.15;1.80;;;23.80;1.00;;;;;;5042788;28;21845;-63
2022/09/09 10:35:38;;;;;;;5.13;1.42;;;25.10;1.00;;;;;;5045627;28;20195;-62
2022/09/09 10:38:13;;;;;;;5.78;1.35;;;26.90;1.00;;;;;;5044683;28;20199;-64
2022/09/09 10:40:48;;;;;;;4.75;1.75;;;28.00;1.00;;;;;;5033395;28;20198;-65
2022/09/09 10:43:21;;;;;;;5.32;1.20;;;27.30;1.00;;;;;;5043431;28;20717;-64
2022/09/09 10:46:22;;;;;;;6.30;1.50;;;26.60;1.00;;;;;;5044480;28;20184;-63
2022/09/09 10:49:14;;;;;;;8.60;1.73;;;25.10;1.00;;;;;;5004778;28;20211;-63
2022/09/09 10:52:17;;;;;;;5.75;1.75;;;23.90;1.00;;;;;;5042842;28;20191;-66
2022/09/09 10:54:44;;;;;;;2.88;1.40;;;23.70;1.00;;;;;;5041719;28;20717;-65
2022/09/09 10:57:38;;;;;;;4.07;1.50;;;23.50;1.00;;;;;;5040636;28;20757;-64
2022/09/09 11:00:14;;;;;;;4.47;1.63;;;23.00;1.00;;;;;;5046180;28;21224;-63
2022/09/09 11:02:44;;;;;;;6.35;1.95;;;23.10;1.00;;;;;;5044029;28;20301;-62
2022/09/09 11:05:27;;;;;;;4.05;1.50;;;24.20;1.00;;;;;;5045918;28;20674;-66
2022/09/09 11:08:18;;;;;;;2.72;1.02;;;26.00;1.00;;;;;;5023655;28;20210;-64
2022/09/09 11:11:22;;;;;;;5.28;1.50;;;24.90;1.00;;;;;;5037697;28;20198;-64
2022/09/09 11:13:52;;;;;;;4.60;1.38;;;24.90;1.00;;;;;;5039536;28;20227;-65
2022/09/09 11:16:23;;;;;;;6.85;2.13;;;25.40;1.00;;;;;;5041722;28;20212;-63
2022/09/09 11:18:54;;;;;;;6.40;1.60;;;23.70;1.00;;;;;;5023735;28;20542;-64
2022/09/09 11:21:33;;;;;;;5.60;1.55;;;23.20;1.00;;;;;;5039411;28;20207;-64
2022/09/09 11:24:12;;;;;;;3.53;1.20;;;24.60;1.00;;;;;;5042484;28;20234;-64
2022/09/09 11:26:47;;;;;;;3.22;1.02;;;25.40;1.00;;;;;;5038449;28;20213;-65
2022/09/09 11:29:39;;;;;;;4.53;1.73;;;26.80;1.00;;;;;;5045141;28;20685;-63
2022/09/09 11:32:32;;;;;;;2.88;1.23;;;24.90;1.00;;;;;;5041042;28;20202;-65
2022/09/09 11:35:30;;;;;;;4.05;1.20;;;24.80;1.00;;;;;;5039894;28;20639;-64
2022/09/09 11:38:03;;;;;;;4.22;1.27;;;24.00;1.00;;;;;;5023016;28;20206;-63
2022/09/09 11:40:32;;;;;;;4.32;1.45;;;23.70;1.00;;;;;;5019051;28;20306;-64
2022/09/09 11:43:14;;;;;;;3.40;1.50;;;24.10;1.00;;;;;;5038283;28;20655;-64
2022/09/09 11:45:43;;;;;;;2.70;1.40;;;24.60;1.00;;;;;;5036748;28;20192;-64
2022/09/09 11:48:35;;;;;;;2.83;1.15;;;24.50;1.00;;;;;;5020715;28;20206;-62
2022/09/09 11:51:12;;;;;;;2.70;1.20;;;24.20;1.00;;;;;;5021511;28;20900;-61
2022/09/09 11:53:54;;;;;;;5.60;1.33;;;25.00;1.00;;;;;;5039613;28;20196;-63
2022/09/09 11:56:54;;;;;;;3.42;1.50;;;24.70;1.00;;;;;;5035257;28;20987;-64
2022/09/09 11:59:27;;;;;;;5.05;1.33;;;23.70;1.00;;;;;;5004604;28;20983;-64
2022/09/09 12:02:02;;;;;;;3.67;1.27;;;24.00;1.00;;;;;;5037699;28;20674;-64
2022/09/09 12:04:44;;;;;;;2.85;1.33;;;25.50;1.00;;;;;;5042172;28;20191;-64
2022/09/09 12:07:11;;;;;;;3.45;1.17;;;26.20;1.00;;;;;;5040542;28;20564;-63
2022/09/09 12:09:38;;;;;;;4.22;1.23;;;24.30;1.00;;;;;;5041725;28;20252;-64
2022/09/09 12:12:29;;;;;;;4.22;1.35;;;23.20;1.00;;;;;;5043659;28;20195;-62
2022/09/09 12:15:07;;;;;;;2.00;0.82;;;23.90;1.00;;;;;;5044293;28;20215;-64
2022/09/09 12:17:58;;;;;;;1.90;1.00;;;23.90;1.00;;;;;;5044953;28;20286;-66
2022/09/09 12:20:49;;;;;;;2.22;0.85;;;23.70;1.00;;;;;;5023198;28;20222;-64
2022/09/09 12:23:26;;;;;;;4.10;1.30;;;24.20;1.00;;;;;;5043730;28;20310;-64
2022/09/09 12:26:26;;;;;;;3.65;1.40;;;25.00;1.00;;;;;;5044931;28;20198;-61
2022/09/09 12:28:57;;;;;;;2.15;0.82;;;25.00;1.00;;;;;;5042739;28;20232;-64
2022/09/09 12:31:45;;;;;;;3.17;1.10;;;23.90;1.00;;;;;;5043492;28;20266;-64
2022/09/09 12:34:28;;;;;;;2.70;0.77;;;23.80;1.00;;;;;;5044409;28;20210;-63
2022/09/09 12:37:02;;;;;;;3.08;1.15;;;23.50;1.00;;;;;;5042447;28;20191;-63
2022/09/09 12:39:35;;;;;;;5.18;1.85;;;23.70;1.00;;;;;;5021427;28;20218;-65
2022/09/09 12:42:03;;;;;;;6.05;1.50;;;23.60;1.00;;;;;;5040924;28;20195;-64
2022/09/09 12:44:32;;;;;;;5.03;1.30;;;23.40;1.00;;;;;;5042452;28;20207;-63
2022/09/09 12:47:02;;;;;;;6.28;1.30;;;23.00;1.00;;;;;;5041055;28;20201;-64
2022/09/09 12:49:39;;;;;;;2.08;1.13;;;22.90;1.00;;;;;;5040657;28;20200;-64
2022/09/09 12:52:26;;;;;;;4.75;1.40;;;22.90;1.00;;;;;;5044008;28;20274;-64
2022/09/09 12:54:53;;;;;;;2.83;1.20;;;23.50;1.00;;;;;;5043001;28;20193;-64
2022/09/09 12:57:25;;;;;;;5.68;1.52;;;23.40;1.00;;;;;;5024702;28;20187;-65
2022/09/09 12:59:53;;;;;;;3.60;1.20;;;23.40;1.00;;;;;;5041102;28;20206;-64
2022/09/09 13:02:24;;;;;;;2.80;1.13;;;23.30;1.00;;;;;;5021433;28;20222;-64
2022/09/09 13:04:53;;;;;;;3.50;1.20;;;23.00;1.00;;;;;;5039150;28;20207;-66
2022/09/09 13:07:21;;;;;;;2.78;1.13;;;22.60;1.00;;;;;;5037915;28;20710;-63
2022/09/09 13:09:49;;;;;;;3.42;1.10;;;22.40;1.00;;;;;;5040129;28;20199;-65
2022/09/09 13:12:23;;;;;;;3.00;1.20;;;22.50;1.00;;;;;;5031556;28;20196;-62
2022/09/09 13:14:53;;;;;;;3.83;1.00;;;22.70;1.00;;;;;;5040167;28;20235;-64
2022/09/09 13:17:24;;;;;;;2.05;0.93;;;22.90;1.00;;;;;;5045221;28;20361;-62
2022/09/09 13:19:52;;;;;;;4.63;1.50;;;23.30;1.00;;;;;;5044698;28;20191;-63
2022/09/09 13:22:37;;;;;;;4.28;1.17;;;23.30;1.00;;;;;;5042274;28;20183;-65
2022/09/09 13:25:11;;;;;;;3.20;0.90;;;23.30;1.00;;;;;;5038560;28;20198;-65
2022/09/09 13:27:40;;;;;;;2.53;1.08;;;23.00;1.00;;;;;;5036886;28;20321;-63
2022/09/09 13:30:29;;;;;;;3.47;1.50;;;22.60;1.00;;;;;;5027325;28;20735;-61
2022/09/09 13:33:22;;;;;;;4.38;1.20;;;22.40;1.00;;;;;;5047893;28;20188;-64